PAVC

King Cove Airport

Airport
ICAO code
PAVC
IATA Code
KVC
Summary
ICAO Region
NAM
ICAO Territory
Location

, Alaska

Serving
King Cove
Elevation
155 ft
Coordinates
55° 6' 59" N , 162° 15' 58" W
Metar
PAVC 250356Z AUTO 28024G32KT 10SM -RA BKN020 BKN026 OVC035 04/02 A2981 RMK AO2 PK WND 27032/0350 RAE22B39 SLPNO P0000 T00440022

Runways

Designator Length Width Surface Rops
7/25 1067 30 GRVL-G No/No

Airport map

Aerial View

SKYbrary Partners:

Safety knowledge contributed by: